createdAt,value
2022-11-28T00:01:09.470Z,66.38
2022-11-28T00:03:36.298Z,71.47
2022-11-28T00:06:07.146Z,71.97
2022-11-28T00:08:34.108Z,72.28
2022-11-28T00:11:05.474Z,68.50
2022-11-28T00:13:32.402Z,75.05
2022-11-28T00:16:00.365Z,66.38
2022-11-28T00:18:27.662Z,69.65
2022-11-28T00:21:06.016Z,63.20
2022-11-28T00:23:33.522Z,63.33
2022-11-28T00:26:08.969Z,71.75
2022-11-28T00:28:35.971Z,64.90
2022-11-28T00:31:03.272Z,69.65
2022-11-28T00:33:31.215Z,71.53
2022-11-28T00:36:02.190Z,66.55
2022-11-28T00:38:29.104Z,66.68
2022-11-28T00:41:02.883Z,65.38
2022-11-28T00:43:29.797Z,67.88
2022-11-28T00:45:56.975Z,68.75
2022-11-28T00:48:24.085Z,64.90
2022-11-28T00:50:51.122Z,67.32
2022-11-28T00:53:17.870Z,67.10
2022-11-28T00:55:44.875Z,66.28
2022-11-28T00:58:11.658Z,65.95
2022-11-28T01:00:38.943Z,65.78
2022-11-28T01:03:05.782Z,64.05
2022-11-28T01:05:32.822Z,61.45
2022-11-28T01:07:59.570Z,63.80
2022-11-28T01:10:27.256Z,66.65
2022-11-28T01:12:53.995Z,59.72
2022-11-28T01:15:21.029Z,62.75
2022-11-28T01:17:47.830Z,60.47
2022-11-28T01:20:14.949Z,62.22
2022-11-28T01:22:41.741Z,63.85
2022-11-28T01:25:08.836Z,64.45
2022-11-28T01:27:35.585Z,58.33
2022-11-28T01:30:02.703Z,60.10
2022-11-28T01:32:29.419Z,67.63
2022-11-28T01:34:56.448Z,63.78
2022-11-28T01:37:23.174Z,61.67
2022-11-28T01:39:50.249Z,64.63
2022-11-28T01:42:18.416Z,64.72
2022-11-28T01:44:48.421Z,58.70
2022-11-28T01:47:17.961Z,63.75
2022-11-28T01:49:44.972Z,64.07
2022-11-28T01:52:13.262Z,63.63
2022-11-28T01:54:40.595Z,60.65
2022-11-28T01:57:16.952Z,64.35
2022-11-28T01:59:51.444Z,57.30
2022-11-28T02:02:25.722Z,61.88
2022-11-28T02:04:52.823Z,59.58
2022-11-28T02:07:19.972Z,56.53
2022-11-28T02:09:47.069Z,60.83
2022-11-28T02:12:32.532Z,60.20
2022-11-28T02:18:05.006Z,59.92
2022-11-28T02:20:32.067Z,57.55
2022-11-28T02:23:32.657Z,56.20
2022-11-28T02:26:05.831Z,57.13
2022-11-28T02:28:46.412Z,61.20
2022-11-28T02:31:41.649Z,60.47
2022-11-28T02:34:31.879Z,57.65
2022-11-28T02:37:09.908Z,57.67
2022-11-28T02:39:42.840Z,56.22
2022-11-28T02:42:20.443Z,56.45
2022-11-28T02:45:00.671Z,54.67
2022-11-28T02:47:32.328Z,57.53
2022-11-28T02:50:38.332Z,56.92
2022-11-28T02:53:07.807Z,56.67
2022-11-28T02:55:37.949Z,54.65
2022-11-28T02:58:04.996Z,57.67
2022-11-28T03:00:36.132Z,57.42
2022-11-28T03:03:03.280Z,55.42
2022-11-28T03:05:32.894Z,57.90
2022-11-28T03:08:10.807Z,57.70
2022-11-28T03:11:01.615Z,56.65
2022-11-28T03:13:57.722Z,62.13
2022-11-28T03:16:36.647Z,57.00
2022-11-28T03:19:06.696Z,62.88
2022-11-28T03:21:40.691Z,63.53
2022-11-28T03:24:15.282Z,64.53
2022-11-28T03:27:11.691Z,66.55
2022-11-28T03:29:44.498Z,63.72
2022-11-28T03:32:18.320Z,64.28
2022-11-28T03:34:46.202Z,62.30
2022-11-28T03:37:37.544Z,67.65
2022-11-28T03:40:07.657Z,64.32
2022-11-28T03:42:40.319Z,69.97
2022-11-28T03:45:16.658Z,70.40
2022-11-28T03:47:48.311Z,68.93
2022-11-28T03:50:18.570Z,62.75
2022-11-28T03:52:50.062Z,65.93
2022-11-28T03:56:16.026Z,62.55
2022-11-28T03:59:29.990Z,61.97
2022-11-28T04:02:21.950Z,56.00
2022-11-28T04:04:51.235Z,59.42
2022-11-28T04:07:40.221Z,61.92
2022-11-28T04:10:07.576Z,61.28
2022-11-28T04:12:40.650Z,60.53
2022-11-28T04:15:38.823Z,58.35
2022-11-28T04:18:21.170Z,57.25
2022-11-28T04:21:10.374Z,61.83
2022-11-28T04:23:37.882Z,63.25
2022-11-28T04:26:11.682Z,59.67
2022-11-28T04:28:38.707Z,61.67
2022-11-28T04:31:05.931Z,64.10
2022-11-28T04:33:35.193Z,67.53
2022-11-28T04:36:01.999Z,64.28
2022-11-28T04:38:29.370Z,62.50
2022-11-28T04:41:00.765Z,62.97
2022-11-28T04:43:30.278Z,64.03
2022-11-28T04:46:00.938Z,65.88
2022-11-28T04:48:33.990Z,63.53
2022-11-28T04:51:10.375Z,64.07
2022-11-28T04:53:43.881Z,63.83
2022-11-28T04:56:17.471Z,65.05
2022-11-28T04:58:45.963Z,65.80
2022-11-28T05:01:16.252Z,63.50
2022-11-28T05:03:43.376Z,57.53
2022-11-28T05:06:10.128Z,60.00
2022-11-28T05:08:37.254Z,55.10
2022-11-28T05:11:04.012Z,59.55
2022-11-28T05:13:31.015Z,65.45
2022-11-28T05:16:00.517Z,61.55
2022-11-28T05:18:27.601Z,57.90
2022-11-28T05:20:54.583Z,56.13
2022-11-28T05:23:21.623Z,64.10
2022-11-28T05:25:48.357Z,60.55
2022-11-28T05:28:15.376Z,57.92
2022-11-28T05:30:42.084Z,60.58
2022-11-28T05:33:09.152Z,66.10
2022-11-28T05:35:39.525Z,63.22
2022-11-28T05:38:12.099Z,71.40
2022-11-28T05:40:44.217Z,68.47
2022-11-28T05:43:11.726Z,71.75
2022-11-28T05:45:42.410Z,69.75
2022-11-28T05:48:09.523Z,64.90
2022-11-28T05:50:40.088Z,68.43
2022-11-28T05:53:07.261Z,62.22
2022-11-28T05:55:34.146Z,60.40
2022-11-28T05:58:01.149Z,65.68
2022-11-28T06:00:27.908Z,64.00
2022-11-28T06:02:59.887Z,68.60
2022-11-28T06:05:42.307Z,68.10
2022-11-28T06:08:13.632Z,66.07
2022-11-28T06:10:41.134Z,65.57
2022-11-28T06:13:08.691Z,57.63
2022-11-28T06:15:38.239Z,67.22
2022-11-28T06:18:05.979Z,72.18
2022-11-28T06:20:34.877Z,71.47
2022-11-28T06:23:01.889Z,72.88
2022-11-28T06:25:28.913Z,66.80
2022-11-28T06:27:55.939Z,70.47
2022-11-28T06:30:22.699Z,68.50
2022-11-28T06:32:49.715Z,70.55
2022-11-28T06:35:16.600Z,67.38
2022-11-28T06:37:43.668Z,68.75
2022-11-28T06:40:10.513Z,71.53
2022-11-28T06:42:37.580Z,73.25
2022-11-28T06:45:05.188Z,73.45
2022-11-28T06:47:32.455Z,67.82
2022-11-28T06:49:59.164Z,71.80
2022-11-28T06:52:26.519Z,64.68
2022-11-28T06:54:53.268Z,64.38
2022-11-28T06:57:20.284Z,72.05
2022-11-28T06:59:48.597Z,66.60
2022-11-28T07:02:15.657Z,70.22
2022-11-28T07:04:42.474Z,69.43
2022-11-28T07:07:13.696Z,67.00
2022-11-28T07:09:43.368Z,68.78
2022-11-28T07:12:10.555Z,68.70
2022-11-28T07:14:37.302Z,70.07
2022-11-28T07:17:04.353Z,69.10
2022-11-28T07:19:31.108Z,64.38
2022-11-28T07:21:58.153Z,66.72
2022-11-28T07:24:24.997Z,68.75
2022-11-28T07:26:52.157Z,66.95
2022-11-28T07:29:19.171Z,62.30
2022-11-28T07:31:46.294Z,68.53
2022-11-28T07:34:13.020Z,67.07
2022-11-28T07:36:40.115Z,63.05
2022-11-28T07:39:08.678Z,68.28
2022-11-28T07:41:35.732Z,65.35
2022-11-28T07:44:03.501Z,71.80
2022-11-28T07:46:31.223Z,70.78
2022-11-28T07:48:58.020Z,68.10
2022-11-28T07:51:27.165Z,70.30
2022-11-28T07:53:54.032Z,63.55
2022-11-28T07:56:23.043Z,66.75
2022-11-28T07:58:50.139Z,67.82
2022-11-28T08:01:22.419Z,69.88
2022-11-28T08:03:49.308Z,65.85
2022-11-28T08:06:16.795Z,66.28
2022-11-28T08:08:43.796Z,67.38
2022-11-28T08:11:11.018Z,62.95
2022-11-28T08:13:37.960Z,68.28
2022-11-28T08:16:34.719Z,68.50
2022-11-28T08:19:02.143Z,72.28
2022-11-28T08:21:31.321Z,71.43
2022-11-28T08:23:59.575Z,70.63
2022-11-28T08:26:30.431Z,72.68
2022-11-28T08:29:01.284Z,72.45
2022-11-28T08:31:30.330Z,67.75
2022-11-28T08:33:58.246Z,80.10
2022-11-28T08:36:25.401Z,70.15
2022-11-28T08:41:39.396Z,72.93
2022-11-28T08:44:06.124Z,66.18
2022-11-28T08:46:33.296Z,70.57
2022-11-28T08:49:04.159Z,69.20
2022-11-28T08:51:31.799Z,68.00
2022-11-28T08:53:59.782Z,69.30
2022-11-28T08:56:27.743Z,74.10
2022-11-28T08:58:55.101Z,67.78
2022-11-28T09:01:25.978Z,64.40
2022-11-28T09:03:53.555Z,66.18
2022-11-28T09:06:21.194Z,69.25
2022-11-28T09:08:48.283Z,68.15
2022-11-28T09:11:17.380Z,64.72
2022-11-28T09:13:44.267Z,66.68
2022-11-28T09:16:11.507Z,66.28
2022-11-28T09:18:38.527Z,66.03
2022-11-28T09:21:09.333Z,71.55
2022-11-28T09:23:39.828Z,70.03
2022-11-28T09:26:14.796Z,69.18
2022-11-28T09:28:41.707Z,71.07
2022-11-28T09:31:09.219Z,69.55
2022-11-28T09:33:36.119Z,69.88
2022-11-28T09:36:16.919Z,73.00
2022-11-28T09:38:43.756Z,71.85
2022-11-28T09:41:22.604Z,80.97
2022-11-28T09:43:54.595Z,80.93
2022-11-28T09:46:27.182Z,85.88
2022-11-28T09:48:55.938Z,92.35
2022-11-28T09:51:42.253Z,104.38
2022-11-28T09:54:21.368Z,102.78
2022-11-28T09:56:49.092Z,106.07
2022-11-28T09:59:25.386Z,113.05
2022-11-28T10:02:15.670Z,116.80
2022-11-28T10:04:51.243Z,131.52
2022-11-28T10:07:30.115Z,133.30
2022-11-28T10:10:22.998Z,150.68
2022-11-28T10:13:27.389Z,150.00
2022-11-28T10:16:21.183Z,146.70
2022-11-28T10:18:55.368Z,163.57
2022-11-28T10:21:35.854Z,160.65
2022-11-28T10:24:24.402Z,153.25
2022-11-28T10:26:54.157Z,167.93
2022-11-28T10:29:25.722Z,166.40
2022-11-28T10:31:55.207Z,162.45
2022-11-28T10:34:25.317Z,164.82
2022-11-28T10:37:11.339Z,158.10
2022-11-28T10:39:38.873Z,155.30
2022-11-28T10:42:17.669Z,150.45
2022-11-28T10:44:57.807Z,149.02
2022-11-28T10:48:29.596Z,150.45
2022-11-28T10:51:07.116Z,143.35
2022-11-28T10:54:22.280Z,143.10
2022-11-28T10:57:03.458Z,147.70
2022-11-28T10:59:58.277Z,145.95
2022-11-28T11:02:36.877Z,134.55
2022-11-28T11:05:05.419Z,133.40
2022-11-28T11:07:33.372Z,120.43
2022-11-28T11:10:17.916Z,118.18
2022-11-28T11:12:45.200Z,115.13
2022-11-28T11:15:19.041Z,105.13
2022-11-28T11:17:46.184Z,106.22
2022-11-28T11:20:39.483Z,111.72
2022-11-28T11:23:13.117Z,112.68
2022-11-28T11:25:55.472Z,105.88
2022-11-28T11:28:42.061Z,94.03
2022-11-28T11:31:32.303Z,92.85
2022-11-28T11:34:04.137Z,88.47
2022-11-28T11:36:35.723Z,93.82
2022-11-28T11:39:12.445Z,90.50
2022-11-28T11:41:42.943Z,92.40
2022-11-28T11:44:16.020Z,92.63
2022-11-28T11:47:01.854Z,81.10
2022-11-28T11:49:35.248Z,80.32
2022-11-28T11:52:23.334Z,76.10
2022-11-28T11:55:06.954Z,82.30
2022-11-28T11:57:39.982Z,72.13
2022-11-28T12:00:10.781Z,76.68
2022-11-28T12:02:50.789Z,69.07
2022-11-28T12:05:20.000Z,69.03
2022-11-28T12:07:52.888Z,74.25
2022-11-28T12:10:21.655Z,69.68
2022-11-28T12:12:48.402Z,65.75
2022-11-28T12:15:28.992Z,69.40
2022-11-28T12:18:04.518Z,65.00
2022-11-28T12:20:53.818Z,63.13
2022-11-28T12:23:57.226Z,71.57
2022-11-28T12:26:39.748Z,64.75
2022-11-28T12:29:23.764Z,58.33
2022-11-28T12:32:09.586Z,60.40
2022-11-28T12:34:44.146Z,62.63
2022-11-28T12:37:54.694Z,64.65
2022-11-28T12:40:23.339Z,68.28
2022-11-28T12:42:59.593Z,61.75
2022-11-28T12:45:43.448Z,71.28
2022-11-28T12:48:32.511Z,66.75
2022-11-28T12:51:03.294Z,67.00
2022-11-28T12:53:40.004Z,69.50
2022-11-28T12:56:16.070Z,75.05
2022-11-28T12:59:08.947Z,74.50
2022-11-28T13:01:51.069Z,62.53
2022-11-28T13:04:48.007Z,74.70
2022-11-28T13:07:36.168Z,74.72
2022-11-28T13:10:13.480Z,71.18
2022-11-28T13:12:49.722Z,70.13
2022-11-28T13:15:25.506Z,69.82
2022-11-28T13:17:55.612Z,70.72
2022-11-28T13:20:29.899Z,69.28
2022-11-28T13:23:14.917Z,72.75
2022-11-28T13:25:50.287Z,69.85
2022-11-28T13:28:26.287Z,69.65
2022-11-28T13:30:56.310Z,72.07
2022-11-28T13:33:38.563Z,58.90
2022-11-28T13:36:07.046Z,68.15
2022-11-28T13:39:11.954Z,61.03
2022-11-28T13:42:14.242Z,59.85
2022-11-28T13:45:19.227Z,62.15
2022-11-28T13:47:46.282Z,53.25
2022-11-28T13:50:22.957Z,59.33
2022-11-28T13:53:10.517Z,61.30
2022-11-28T13:55:46.979Z,58.67
2022-11-28T13:58:40.409Z,64.45
2022-11-28T14:01:09.245Z,63.38
2022-11-28T14:03:53.733Z,62.25
2022-11-28T14:06:22.325Z,60.55
2022-11-28T14:09:06.149Z,72.20
2022-11-28T14:11:43.530Z,66.88
2022-11-28T14:14:20.809Z,73.65
2022-11-28T14:16:57.121Z,74.82
2022-11-28T14:19:45.836Z,73.05
2022-11-28T14:22:22.220Z,82.50
2022-11-28T14:25:02.979Z,83.40
2022-11-28T14:27:33.268Z,84.97
2022-11-28T14:30:00.322Z,80.88
2022-11-28T14:32:35.803Z,85.60
2022-11-28T14:35:03.884Z,85.68
2022-11-28T14:37:34.792Z,87.85
2022-11-28T14:40:01.948Z,87.95
2022-11-28T14:42:59.114Z,83.03
2022-11-28T14:45:33.209Z,88.82
2022-11-28T14:48:22.802Z,88.57
2022-11-28T14:50:54.764Z,104.07
2022-11-28T14:53:44.720Z,111.28
2022-11-28T14:56:14.985Z,116.75
2022-11-28T14:58:48.495Z,125.32
2022-11-28T15:01:19.818Z,136.48
2022-11-28T15:03:59.438Z,126.30
2022-11-28T15:06:36.175Z,123.85
2022-11-28T15:09:17.950Z,122.47
2022-11-28T15:12:11.574Z,129.45
2022-11-28T15:14:38.450Z,134.68
2022-11-28T15:17:06.874Z,140.25
2022-11-28T15:19:38.252Z,139.93
2022-11-28T15:22:05.382Z,137.68
2022-11-28T15:24:32.968Z,131.10
2022-11-28T15:27:09.188Z,133.05
2022-11-28T15:29:36.360Z,126.68
2022-11-28T15:32:03.504Z,133.63
2022-11-28T15:34:34.977Z,128.77
2022-11-28T15:37:03.713Z,126.53
2022-11-28T15:39:35.039Z,122.32
2022-11-28T15:42:03.239Z,120.25
2022-11-28T15:44:30.019Z,119.18
2022-11-28T15:46:57.133Z,130.98
2022-11-28T15:49:40.682Z,125.55
2022-11-28T15:52:07.744Z,128.68
2022-11-28T15:54:38.565Z,120.03
2022-11-28T15:57:06.023Z,117.85
2022-11-28T15:59:33.000Z,118.05
2022-11-28T16:02:07.912Z,118.28
2022-11-28T16:04:34.718Z,117.70
2022-11-28T16:07:02.104Z,123.18
2022-11-28T16:09:30.068Z,118.53
2022-11-28T16:11:57.173Z,117.25
2022-11-28T16:14:32.273Z,112.53
2022-11-28T16:16:59.727Z,117.20
2022-11-28T16:19:28.100Z,116.38
2022-11-28T16:21:57.487Z,113.40
2022-11-28T16:24:32.465Z,118.35
2022-11-28T16:27:06.127Z,124.72
2022-11-28T16:29:34.948Z,126.57
2022-11-28T16:32:21.889Z,113.15
2022-11-28T16:34:50.030Z,110.13
2022-11-28T16:37:24.191Z,119.60
2022-11-28T16:40:17.181Z,108.65
2022-11-28T16:42:52.230Z,110.50
2022-11-28T16:45:22.011Z,104.82
2022-11-28T16:48:21.917Z,121.75
2022-11-28T16:51:10.746Z,120.28
2022-11-28T16:53:55.228Z,119.53
2022-11-28T16:56:31.268Z,122.47
2022-11-28T16:59:03.713Z,133.48
2022-11-28T17:01:30.613Z,135.82
2022-11-28T17:03:57.890Z,130.35
2022-11-28T17:06:28.863Z,134.45
2022-11-28T17:08:56.441Z,139.73
2022-11-28T17:11:24.285Z,138.13
2022-11-28T17:13:51.871Z,140.63
2022-11-28T17:16:23.415Z,130.95
2022-11-28T17:18:50.961Z,141.65
2022-11-28T17:21:22.869Z,159.48
2022-11-28T17:23:49.906Z,140.35
2022-11-28T17:26:16.709Z,153.70
2022-11-28T17:28:43.843Z,165.32
2022-11-28T17:31:13.307Z,150.48
2022-11-28T17:33:44.488Z,151.95
2022-11-28T17:36:12.183Z,157.85
2022-11-28T17:38:39.309Z,154.98
2022-11-28T17:41:06.251Z,163.80
2022-11-28T17:43:38.780Z,170.23
2022-11-28T17:46:06.139Z,164.32
2022-11-28T17:48:33.246Z,173.85
2022-11-28T17:51:02.014Z,174.52
2022-11-28T17:53:29.201Z,168.02
2022-11-28T17:55:59.081Z,173.55
2022-11-28T17:58:29.306Z,160.15
2022-11-28T18:01:00.579Z,158.88
2022-11-28T18:03:28.909Z,157.38
2022-11-28T18:05:55.774Z,160.27
2022-11-28T18:08:22.881Z,163.30
2022-11-28T18:10:49.682Z,152.40
2022-11-28T18:13:17.612Z,159.20
2022-11-28T18:15:47.095Z,155.13
2022-11-28T18:18:14.221Z,154.00
2022-11-28T18:20:41.057Z,159.02
2022-11-28T18:23:10.243Z,164.30
2022-11-28T18:25:41.264Z,157.85
2022-11-28T18:28:08.287Z,151.90
2022-11-28T18:30:35.019Z,158.60
2022-11-28T18:33:02.020Z,158.57
2022-11-28T18:35:28.816Z,164.40
2022-11-28T18:37:55.868Z,159.63
2022-11-28T18:40:22.743Z,155.38
2022-11-28T18:42:49.792Z,151.25
2022-11-28T18:45:16.607Z,152.50
2022-11-28T18:47:43.680Z,163.38
2022-11-28T18:50:10.528Z,155.15
2022-11-28T18:52:37.729Z,149.40
2022-11-28T18:55:04.705Z,155.95
2022-11-28T18:57:33.676Z,156.60
2022-11-28T19:00:01.031Z,161.55
2022-11-28T19:02:28.952Z,162.82
2022-11-28T19:04:56.039Z,161.20
2022-11-28T19:07:23.272Z,156.30
2022-11-28T19:09:50.182Z,148.43
2022-11-28T19:12:19.353Z,156.13
2022-11-28T19:14:46.485Z,162.00
2022-11-28T19:17:13.537Z,163.55
2022-11-28T19:19:41.387Z,164.50
2022-11-28T19:22:08.670Z,162.60
2022-11-28T19:24:35.671Z,156.93
2022-11-28T19:27:02.887Z,148.95
2022-11-28T19:29:29.608Z,164.93
2022-11-28T19:31:56.751Z,160.02
2022-11-28T19:34:23.590Z,163.38
2022-11-28T19:36:51.230Z,166.10
2022-11-28T19:39:22.374Z,155.40
2022-11-28T19:41:49.876Z,166.20
2022-11-28T19:44:16.737Z,164.10
2022-11-28T19:46:44.076Z,159.45
2022-11-28T19:49:19.448Z,165.35
2022-11-28T19:51:47.218Z,167.55
2022-11-28T19:54:14.741Z,171.15
2022-11-28T19:56:41.892Z,186.13
2022-11-28T19:59:08.624Z,188.10
2022-11-28T20:01:35.819Z,186.45
2022-11-28T20:04:02.661Z,180.10
2022-11-28T20:06:30.669Z,181.75
2022-11-28T20:09:08.796Z,208.73
2022-11-28T20:11:36.231Z,192.88
2022-11-28T20:14:07.617Z,192.27
2022-11-28T20:16:35.733Z,197.80
2022-11-28T20:19:02.648Z,193.00
2022-11-28T20:21:30.840Z,198.20
2022-11-28T20:23:59.765Z,184.73
2022-11-28T20:26:27.112Z,190.82
2022-11-28T20:28:54.727Z,193.98
2022-11-28T20:31:24.321Z,191.13
2022-11-28T20:33:51.734Z,189.15
2022-11-28T20:36:19.799Z,196.23
2022-11-28T20:38:46.819Z,181.40
2022-11-28T20:41:14.614Z,185.32
2022-11-28T20:43:41.605Z,192.25
2022-11-28T20:46:11.121Z,186.10
2022-11-28T20:48:38.137Z,178.90
2022-11-28T20:51:12.781Z,176.45
2022-11-28T20:53:41.359Z,190.40
2022-11-28T20:56:13.206Z,187.07
2022-11-28T20:58:40.065Z,175.05
2022-11-28T21:01:07.351Z,180.88
2022-11-28T21:03:34.445Z,175.15
2022-11-28T21:06:01.824Z,178.55
2022-11-28T21:08:31.370Z,173.05
2022-11-28T21:10:58.591Z,182.30
2022-11-28T21:13:25.352Z,184.73
2022-11-28T21:15:53.542Z,178.85
2022-11-28T21:18:20.384Z,176.88
2022-11-28T21:20:47.632Z,177.43
2022-11-28T21:23:15.434Z,177.90
2022-11-28T21:25:43.245Z,190.13
2022-11-28T21:28:12.161Z,190.55
2022-11-28T21:30:46.234Z,191.20
2022-11-28T21:33:13.170Z,186.25
2022-11-28T21:35:40.351Z,181.15
2022-11-28T21:38:07.491Z,201.85
2022-11-28T21:40:34.555Z,188.52
2022-11-28T21:43:01.349Z,190.80
2022-11-28T21:45:28.502Z,192.70
2022-11-28T21:47:55.346Z,201.20
2022-11-28T21:50:22.409Z,188.18
2022-11-28T21:52:49.247Z,192.57
2022-11-28T21:55:16.337Z,184.65
2022-11-28T21:57:43.272Z,183.50
2022-11-28T22:00:20.787Z,198.73
2022-11-28T22:03:02.935Z,185.38
2022-11-28T22:05:32.880Z,187.40
2022-11-28T22:07:59.713Z,189.05
2022-11-28T22:10:27.983Z,188.88
2022-11-28T22:12:54.772Z,185.13
2022-11-28T22:15:22.267Z,178.15
2022-11-28T22:17:49.145Z,178.43
2022-11-28T22:20:16.197Z,180.43
2022-11-28T22:22:42.909Z,180.82
2022-11-28T22:25:10.131Z,184.95
2022-11-28T22:27:38.066Z,182.07
2022-11-28T22:30:06.269Z,181.07
2022-11-28T22:32:33.037Z,168.20
2022-11-28T22:35:00.205Z,178.90
2022-11-28T22:37:27.333Z,182.65
2022-11-28T22:39:54.392Z,172.43
2022-11-28T22:42:21.153Z,170.93
2022-11-28T22:44:48.230Z,176.80
2022-11-28T22:47:15.000Z,172.13
2022-11-28T22:49:42.074Z,178.07
2022-11-28T22:52:08.878Z,177.32
2022-11-28T22:54:35.922Z,168.75
2022-11-28T22:57:02.673Z,173.15
2022-11-28T22:59:33.610Z,170.52
2022-11-28T23:02:00.564Z,166.85
2022-11-28T23:04:27.717Z,175.38
2022-11-28T23:06:54.446Z,167.85
2022-11-28T23:09:21.486Z,173.32
2022-11-28T23:11:48.274Z,169.30
2022-11-28T23:14:15.569Z,171.27
2022-11-28T23:16:43.130Z,163.82
2022-11-28T23:19:12.684Z,162.93
2022-11-28T23:21:40.528Z,164.40
2022-11-28T23:24:07.785Z,168.55
2022-11-28T23:26:34.852Z,163.20
2022-11-28T23:29:03.100Z,166.07
2022-11-28T23:31:31.341Z,156.05
2022-11-28T23:33:58.622Z,163.07
2022-11-28T23:36:27.377Z,167.35
2022-11-28T23:38:55.773Z,163.13
2022-11-28T23:41:22.705Z,164.27
2022-11-28T23:43:49.848Z,161.68
2022-11-28T23:46:17.422Z,164.10
2022-11-28T23:48:45.224Z,166.40
2022-11-28T23:51:15.365Z,154.15
2022-11-28T23:53:42.765Z,149.63
2022-11-28T23:56:10.508Z,158.50
2022-11-28T23:58:37.630Z,153.80
